Terminal Aerodrome Forecast
Issued by NWS Albany, NY

Home | Current Version | Previous Version | Text Only | Print | Product List | Glossary On
Versions: 1 2 3 4 5 6 7 8 9 10 11 12 13 14 15 16 17 18 19 20 21 22 23 24 25 26 27 28 29 30 31
000
FTUS41 KALY 220536
TAFGFL
TAF
KGFL 220536Z 2206/2306 00000KT 1/2SM FG VV002
      TEMPO 2206/2208 3SM BR SCT005
     FM220800 00000KT 1/4SM FG VV002
     FM221400 01002KT 1SM BR OVC005
     FM221900 05003KT 3SM BR OVC015
     FM230300 02004KT 4SM BR OVC015=

USA.gov is the U.S. government's official web portal to all federal, state and local government web resources and services.